Time;durP1;ratioP1;P1;durP2;ratioP2;P2;SDS_P1;SDS_P2;PMS_P1;PMS_P2;Temp;Humidity;BMP_temperature;BMP_pressure;BME280_temperature;BME280_humidity;BME280_pressure;Samples;Min_cycle;Max_cycle;Signal;HPM_P1;HPM_P2
2024/02/16 00:00:27;;;;;;;;;;;;;;;7.11;84.79;100232.53;5116340;28;19920;-67
2024/02/16 00:02:56;;;;;;;;;;;;;;;7.04;85.35;100233.22;5115852;28;19931;-67
2024/02/16 00:05:24;;;;;;;;;;;;;;;7.00;85.46;100241.59;5115760;28;19920;-68
2024/02/16 00:07:55;;;;;;;;;;;;;;;6.98;85.99;100238.19;5116118;28;19923;-67
2024/02/16 00:10:23;;;;;;;;;;;;;;;6.91;85.19;100243.94;5114513;28;19920;-68
2024/02/16 00:12:52;;;;;;;;;;;;;;;6.86;85.74;100242.97;5115729;28;19966;-68
2024/02/16 00:15:20;;;;;;;;;;;;;;;6.81;85.86;100242.88;5115434;28;19920;-68
2024/02/16 00:17:50;;;;;;;;;;;;;;;6.75;85.73;100241.06;5115592;28;19929;-69
2024/02/16 00:20:22;;;;;;;;;;;;;;;6.71;85.24;100239.28;5115575;28;19919;-68
2024/02/16 00:22:51;;;;;;;;;;;;;;;6.63;86.03;100233.16;5114606;28;20026;-67
2024/02/16 00:25:20;;;;;;;;;;;;;;;6.62;85.51;100236.50;5115295;28;19920;-68
2024/02/16 00:27:48;;;;;;;;;;;;;;;6.63;86.67;100240.75;5114480;28;19945;-68
2024/02/16 00:30:17;;;;;;;;;;;;;;;6.61;86.27;100239.00;5115603;28;20281;-68
2024/02/16 00:32:46;;;;;;;;;;;;;;;6.59;85.98;100235.56;5115518;28;20260;-68
2024/02/16 00:35:17;;;;;;;;;;;;;;;6.56;86.40;100236.38;5115156;28;19920;-68
2024/02/16 00:37:46;;;;;;;;;;;;;;;6.54;86.19;100234.59;5115219;28;19920;-68
2024/02/16 00:40:15;;;;;;;;;;;;;;;6.46;86.16;100239.50;5115182;28;19925;-68
2024/02/16 00:42:43;;;;;;;;;;;;;;;6.41;87.01;100237.66;5115099;28;19965;-67
2024/02/16 00:45:12;;;;;;;;;;;;;;;6.41;86.58;100243.59;5113781;28;20296;-68
2024/02/16 00:47:41;;;;;;;;;;;;;;;6.37;87.24;100231.66;5115326;28;19920;-67
2024/02/16 00:50:10;;;;;;;;;;;;;;;6.31;86.69;100230.66;5115022;28;19946;-66
2024/02/16 00:52:44;;;;;;;;;;;;;;;6.26;87.09;100228.00;5115301;28;20292;-67
2024/02/16 00:55:13;;;;;;;;;;;;;;;6.21;87.63;100218.56;5114891;28;19965;-67
2024/02/16 00:57:42;;;;;;;;;;;;;;;6.18;87.06;100224.41;5114897;28;19920;-68
2024/02/16 01:00:11;;;;;;;;;;;;;;;6.15;87.38;100213.34;5114891;28;19919;-67
2024/02/16 01:02:40;;;;;;;;;;;;;;;6.17;87.81;100216.78;5112758;28;20361;-68
2024/02/16 01:05:10;;;;;;;;;;;;;;;6.07;87.88;100210.59;5114740;28;19920;-68
2024/02/16 01:07:39;;;;;;;;;;;;;;;6.05;88.04;100209.72;5114834;28;19924;-67
2024/02/16 01:10:10;;;;;;;;;;;;;;;6.05;87.51;100202.09;5114283;28;19920;-68
2024/02/16 01:12:38;;;;;;;;;;;;;;;5.99;87.41;100204.50;5115068;28;19984;-68
2024/02/16 01:15:07;;;;;;;;;;;;;;;5.96;87.53;100201.88;5114476;28;19926;-68
2024/02/16 01:17:35;;;;;;;;;;;;;;;6.01;87.97;100205.38;5115077;28;19924;-69
2024/02/16 01:20:04;;;;;;;;;;;;;;;6.04;87.50;100200.41;5114775;28;19927;-67
2024/02/16 01:22:33;;;;;;;;;;;;;;;6.03;88.02;100198.69;5114806;28;19965;-68
2024/02/16 01:25:02;;;;;;;;;;;;;;;6.01;87.41;100201.19;5114273;28;19919;-68
2024/02/16 01:27:32;;;;;;;;;;;;;;;6.02;87.95;100202.06;5114375;28;20369;-68
2024/02/16 01:30:00;;;;;;;;;;;;;;;5.99;87.92;100201.97;5114814;28;20018;-68
2024/02/16 01:32:29;;;;;;;;;;;;;;;5.99;87.68;100201.97;5114422;28;19919;-68
2024/02/16 01:34:58;;;;;;;;;;;;;;;5.97;88.25;100199.38;5114987;28;19965;-66
2024/02/16 01:37:26;;;;;;;;;;;;;;;5.92;88.29;100203.50;5114301;28;19919;-68
2024/02/16 01:39:55;;;;;;;;;;;;;;;5.88;88.43;100203.34;5114918;28;19960;-69
2024/02/16 01:42:23;;;;;;;;;;;;;;;5.87;88.35;100202.50;5114584;28;19958;-68
2024/02/16 01:44:53;;;;;;;;;;;;;;;5.86;88.52;100199.91;5114214;28;20296;-67
2024/02/16 01:47:22;;;;;;;;;;;;;;;5.81;88.68;100197.22;5114844;28;19940;-69
2024/02/16 01:49:50;;;;;;;;;;;;;;;5.82;88.63;100198.09;5114314;28;19924;-67
2024/02/16 01:52:19;;;;;;;;;;;;;;;5.85;88.82;100193.16;5114209;28;20018;-68
2024/02/16 01:54:47;;;;;;;;;;;;;;;5.86;89.16;100195.72;5114210;28;19920;-68
2024/02/16 01:57:16;;;;;;;;;;;;;;;5.85;88.53;100194.03;5114999;28;20273;-67
2024/02/16 01:59:45;;;;;;;;;;;;;;;5.87;88.75;100194.03;5114032;28;19934;-68
2024/02/16 02:02:15;;;;;;;;;;;;;;;5.87;89.11;100184.78;5114267;28;20044;-67
2024/02/16 02:04:44;;;;;;;;;;;;;;;5.87;88.83;100187.31;5114340;28;20369;-68
2024/02/16 02:07:12;;;;;;;;;;;;;;;5.84;88.98;100186.31;5114343;28;20319;-68
2024/02/16 02:09:41;;;;;;;;;;;;;;;5.82;88.82;100182.91;5114030;28;19920;-67
2024/02/16 02:12:10;;;;;;;;;;;;;;;5.83;88.90;100184.63;5115016;28;19968;-68
2024/02/16 02:14:39;;;;;;;;;;;;;;;5.80;88.90;100179.47;5113933;28;19920;-68
2024/02/16 02:17:08;;;;;;;;;;;;;;;5.77;88.64;100184.47;5113918;28;19965;-68
2024/02/16 02:19:38;;;;;;;;;;;;;;;5.76;88.29;100177.69;5114192;28;19919;-68
2024/02/16 02:22:12;;;;;;;;;;;;;;;5.72;88.37;100180.94;5116082;28;20288;-68
2024/02/16 02:24:41;;;;;;;;;;;;;;;5.68;88.69;100174.09;5117635;28;19945;-68
2024/02/16 02:27:09;;;;;;;;;;;;;;;5.61;88.17;100178.16;5118156;28;19919;-67
2024/02/16 02:29:38;;;;;;;;;;;;;;;5.55;88.36;100172.03;5117628;28;19926;-67
2024/02/16 02:32:06;;;;;;;;;;;;;;;5.56;88.39;100173.75;5117997;28;19919;-68
2024/02/16 02:34:36;;;;;;;;;;;;;;;5.56;88.67;100173.75;5116398;28;20030;-69
2024/02/16 02:37:05;;;;;;;;;;;;;;;5.56;88.67;100169.56;5117854;28;19919;-67
2024/02/16 02:39:35;;;;;;;;;;;;;;;5.57;88.03;100172.94;5117672;28;19942;-69
2024/02/16 02:42:04;;;;;;;;;;;;;;;5.55;87.96;100174.56;5116612;28;19919;-68
2024/02/16 02:44:33;;;;;;;;;;;;;;;5.53;87.96;100163.53;5117321;28;20022;-68
2024/02/16 02:47:01;;;;;;;;;;;;;;;5.51;88.05;100170.25;5117706;28;19923;-68
2024/02/16 02:49:29;;;;;;;;;;;;;;;5.42;87.51;100170.88;5117223;28;19919;-67
2024/02/16 02:51:58;;;;;;;;;;;;;;;5.39;87.80;100165.72;5117626;28;19919;-68
2024/02/16 02:54:27;;;;;;;;;;;;;;;5.34;87.45;100173.19;5117252;28;19919;-68
2024/02/16 02:56:57;;;;;;;;;;;;;;;5.32;87.44;100174.81;5117399;28;19920;-67
2024/02/16 02:59:26;;;;;;;;;;;;;;;5.32;87.59;100179.00;5117782;28;19919;-68
2024/02/16 03:01:54;;;;;;;;;;;;;;;5.29;87.63;100174.72;5117059;28;20357;-68
2024/02/16 03:04:23;;;;;;;;;;;;;;;5.30;87.53;100176.41;5116914;28;19919;-68
2024/02/16 03:06:52;;;;;;;;;;;;;;;5.22;87.40;100182.09;5117610;28;19951;-68
2024/02/16 03:09:22;;;;;;;;;;;;;;;5.19;87.56;100185.38;5118214;28;20273;-68
2024/02/16 03:11:51;;;;;;;;;;;;;;;5.17;87.53;100187.03;5117145;28;19919;-69
2024/02/16 03:14:21;;;;;;;;;;;;;;;5.17;87.56;100184.50;5117196;28;19920;-68
2024/02/16 03:16:49;;;;;;;;;;;;;;;5.14;87.40;100189.47;5116735;28;19920;-68
2024/02/16 03:19:18;;;;;;;;;;;;;;;5.08;87.38;100184.22;5117054;28;19919;-68
2024/02/16 03:21:48;;;;;;;;;;;;;;;5.11;87.40;100191.88;5116765;28;19920;-68
2024/02/16 03:24:16;;;;;;;;;;;;;;;5.07;87.49;100197.69;5116717;28;19980;-67
2024/02/16 03:26:45;;;;;;;;;;;;;;;5.09;87.50;100195.19;5116559;28;19923;-68
2024/02/16 03:29:13;;;;;;;;;;;;;;;4.96;87.57;100194.00;5116526;28;19958;-68
2024/02/16 03:31:43;;;;;;;;;;;;;;;4.97;87.12;100195.69;5116155;28;19924;-68
2024/02/16 03:34:11;;;;;;;;;;;;;;;5.00;87.40;100205.03;5116964;28;19955;-69
2024/02/16 03:36:40;;;;;;;;;;;;;;;4.94;87.23;100208.25;5115072;28;19927;-68
2024/02/16 03:39:09;;;;;;;;;;;;;;;4.87;87.33;100208.88;5117253;28;19926;-68
2024/02/16 03:41:38;;;;;;;;;;;;;;;4.84;87.07;100208.78;5116367;28;19919;-68
2024/02/16 03:44:06;;;;;;;;;;;;;;;4.80;86.87;100212.03;5115041;28;19920;-67
2024/02/16 03:46:37;;;;;;;;;;;;;;;4.80;86.96;100212.03;5116217;28;19920;-68
2024/02/16 03:49:07;;;;;;;;;;;;;;;4.74;87.30;100202.59;5116554;28;19919;-68
2024/02/16 03:51:37;;;;;;;;;;;;;;;4.66;86.66;100209.06;5116500;28;19920;-68
2024/02/16 03:54:05;;;;;;;;;;;;;;;4.64;87.03;100210.72;5116016;28;19973;-69
2024/02/16 03:56:34;;;;;;;;;;;;;;;4.64;86.75;100214.91;5115935;28;20022;-68
2024/02/16 03:59:04;;;;;;;;;;;;;;;4.66;87.04;100219.19;5115406;28;20452;-67
2024/02/16 04:01:36;;;;;;;;;;;;;;;4.64;86.77;100219.94;5115982;28;19924;-68
2024/02/16 04:04:04;;;;;;;;;;;;;;;4.66;87.25;100218.31;5115818;28;20254;-68
2024/02/16 04:06:34;;;;;;;;;;;;;;;4.64;87.05;100225.00;5116113;27;19926;-67
2024/02/16 04:09:04;;;;;;;;;;;;;;;4.61;87.18;100224.91;5115833;28;19931;-68
2024/02/16 04:11:33;;;;;;;;;;;;;;;4.55;86.79;100230.66;5116363;28;19920;-68
2024/02/16 04:14:01;;;;;;;;;;;;;;;4.49;86.80;100224.50;5115606;28;19926;-68
2024/02/16 04:16:30;;;;;;;;;;;;;;;4.38;86.85;100233.44;5115946;28;19959;-68
2024/02/16 04:18:58;;;;;;;;;;;;;;;4.33;87.15;100228.22;5116185;28;20023;-68
2024/02/16 04:21:26;;;;;;;;;;;;;;;4.31;87.01;100228.97;5115445;28;19928;-67
2024/02/16 04:23:56;;;;;;;;;;;;;;;4.23;87.14;100226.19;5115652;28;19920;-68
2024/02/16 04:26:25;;;;;;;;;;;;;;;4.18;86.97;100221.78;5116082;28;20356;-68
2024/02/16 04:28:53;;;;;;;;;;;;;;;4.21;87.31;100232.88;5114800;28;19920;-68
2024/02/16 04:31:22;;;;;;;;;;;;;;;4.18;86.82;100227.72;5115518;28;19984;-68
2024/02/16 04:33:50;;;;;;;;;;;;;;;4.12;86.73;100226.66;5115102;28;20300;-67
2024/02/16 04:36:19;;;;;;;;;;;;;;;4.17;87.20;100226.00;5115174;28;20361;-68
2024/02/16 04:38:47;;;;;;;;;;;;;;;4.17;87.08;100228.53;5115210;28;19927;-67
2024/02/16 04:41:17;;;;;;;;;;;;;;;4.15;87.03;100230.13;5115798;28;20280;-68
2024/02/16 04:43:46;;;;;;;;;;;;;;;4.21;87.15;100221.91;5114855;28;20285;-68
2024/02/16 04:46:15;;;;;;;;;;;;;;;4.21;87.37;100226.97;5115415;28;19920;-68
2024/02/16 04:48:44;;;;;;;;;;;;;;;4.24;87.19;100229.59;5114457;28;19920;-67
2024/02/16 04:51:13;;;;;;;;;;;;;;;4.20;87.00;100230.31;5115011;28;19989;-68
2024/02/16 04:53:41;;;;;;;;;;;;;;;4.14;86.66;100225.91;5114880;28;19926;-67
2024/02/16 04:56:10;;;;;;;;;;;;;;;4.16;87.01;100229.34;5114998;28;19926;-68
2024/02/16 04:58:42;;;;;;;;;;;;;;;4.20;86.88;100222.72;5115059;28;19966;-67
2024/02/16 05:01:11;;;;;;;;;;;;;;;4.20;87.12;100223.56;5115162;28;19920;-69
2024/02/16 05:03:41;;;;;;;;;;;;;;;4.17;87.09;100217.56;5114643;28;19965;-68
2024/02/16 05:06:10;;;;;;;;;;;;;;;4.16;86.91;100219.22;5113440;28;20022;-68
2024/02/16 05:08:38;;;;;;;;;;;;;;;4.14;86.92;100217.47;5114737;28;19919;-68
2024/02/16 05:11:07;;;;;;;;;;;;;;;4.15;87.15;100216.66;5115251;28;19919;-68
2024/02/16 05:13:37;;;;;;;;;;;;;;;4.08;86.98;100218.09;5114628;28;20014;-67
2024/02/16 05:16:11;;;;;;;;;;;;;;;4.06;87.17;100213.00;5114532;28;19965;-67
2024/02/16 05:18:40;;;;;;;;;;;;;;;4.04;87.25;100214.63;5114539;28;19943;-67
2024/02/16 05:21:09;;;;;;;;;;;;;;;4.01;87.37;100206.09;5114577;28;19923;-68
2024/02/16 05:23:38;;;;;;;;;;;;;;;4.04;87.33;100211.25;5114368;28;19920;-68
2024/02/16 05:26:06;;;;;;;;;;;;;;;4.07;87.52;100209.69;5113208;28;20018;-68
2024/02/16 05:28:35;;;;;;;;;;;;;;;4.12;87.50;100211.50;5114443;28;19920;-68
2024/02/16 05:31:16;;;;;;;;;;;;;;;4.09;87.61;100212.25;5114505;28;20015;-67
2024/02/16 05:33:49;;;;;;;;;;;;;;;4.06;87.29;100213.00;5114645;28;19920;-68
2024/02/16 05:36:20;;;;;;;;;;;;;;;4.06;87.55;100213.00;5114554;28;19919;-67
2024/02/16 05:38:48;;;;;;;;;;;;;;;4.13;87.45;100205.66;5114676;28;19920;-67
2024/02/16 05:41:18;;;;;;;;;;;;;;;4.17;87.67;100205.81;5114643;28;19976;-68
2024/02/16 05:43:46;;;;;;;;;;;;;;;4.18;87.54;100211.69;5113370;28;19927;-67
2024/02/16 05:46:15;;;;;;;;;;;;;;;4.20;87.54;100210.09;5114629;28;20024;-68
2024/02/16 05:48:44;;;;;;;;;;;;;;;4.19;87.24;100213.41;5114204;28;20380;-68
2024/02/16 05:51:14;;;;;;;;;;;;;;;4.11;87.43;100219.88;5114902;28;19927;-68
2024/02/16 05:53:45;;;;;;;;;;;;;;;4.15;87.30;100224.25;5114579;28;19923;-68
2024/02/16 05:56:13;;;;;;;;;;;;;;;4.17;87.08;100231.06;5116439;28;19962;-67
2024/02/16 05:58:42;;;;;;;;;;;;;;;4.16;87.24;100228.47;5118284;28;19920;-67
2024/02/16 06:01:12;;;;;;;;;;;;;;;4.15;87.07;100231.81;5118283;28;19972;-68
2024/02/16 06:03:42;;;;;;;;;;;;;;;4.20;87.39;100227.78;5118216;28;19926;-68
2024/02/16 06:06:10;;;;;;;;;;;;;;;4.20;87.38;100237.88;5118117;28;19919;-68
2024/02/16 06:08:40;;;;;;;;;;;;;;;4.19;87.08;100233.63;5118287;28;20018;-68
2024/02/16 06:11:09;;;;;;;;;;;;;;;4.22;87.39;100241.31;5117253;28;19995;-68
2024/02/16 06:13:39;;;;;;;;;;;;;;;4.25;87.27;100244.78;5117190;28;19970;-68
2024/02/16 06:16:08;;;;;;;;;;;;;;;4.25;87.18;100243.94;5118048;28;19919;-67
2024/02/16 06:18:37;;;;;;;;;;;;;;;4.29;87.33;100245.75;5117813;28;19919;-68
2024/02/16 06:21:06;;;;;;;;;;;;;;;4.40;87.47;100244.44;5117908;28;19963;-67
2024/02/16 06:23:34;;;;;;;;;;;;;;;4.82;87.37;100244.97;5117634;28;19965;-68
2024/02/16 06:26:06;;;;;;;;;;;;;;;5.27;87.52;100252.25;5116625;28;19926;-68
2024/02/16 06:28:35;;;;;;;;;;;;;;;5.55;86.99;100247.97;5116452;28;19998;-68
2024/02/16 06:31:04;;;;;;;;;;;;;;;5.58;86.51;100253.13;5116511;28;19919;-69
2024/02/16 06:33:33;;;;;;;;;;;;;;;5.76;86.41;100253.66;5117618;28;20042;-68
2024/02/16 06:36:03;;;;;;;;;;;;;;;5.87;86.08;100252.31;5116509;28;19954;-68
2024/02/16 06:38:32;;;;;;;;;;;;;;;5.91;85.37;100259.16;5117559;28;19919;-67
2024/02/16 06:41:00;;;;;;;;;;;;;;;5.91;85.18;100266.75;5118368;28;19920;-68
2024/02/16 06:43:30;;;;;;;;;;;;;;;5.87;84.15;100267.50;5117407;28;19927;-68
2024/02/16 06:45:58;;;;;;;;;;;;;;;5.83;84.12;100275.81;5117397;27;20373;-67
2024/02/16 06:48:27;;;;;;;;;;;;;;;5.78;83.90;100277.34;5118243;28;20277;-68
2024/02/16 06:50:55;;;;;;;;;;;;;;;5.77;83.59;100266.34;5117475;28;19923;-67
2024/02/16 06:53:24;;;;;;;;;;;;;;;5.80;83.18;100270.66;5117309;28;19965;-68
2024/02/16 06:55:52;;;;;;;;;;;;;;;5.86;83.59;100270.84;5117104;28;19949;-68
2024/02/16 06:58:21;;;;;;;;;;;;;;;5.92;83.41;100271.03;5117394;27;19959;-67
2024/02/16 07:00:50;;;;;;;;;;;;;;;5.98;83.05;100276.25;5117022;28;19919;-68
2024/02/16 07:03:20;;;;;;;;;;;;;;;6.08;83.28;100283.28;5117226;28;20020;-68
2024/02/16 07:05:48;;;;;;;;;;;;;;;6.14;83.19;100278.38;5116615;28;19966;-68
2024/02/16 07:08:17;;;;;;;;;;;;;;;6.21;83.34;100280.25;5116364;28;20281;-68
2024/02/16 07:10:46;;;;;;;;;;;;;;;6.35;83.38;100276.41;5116956;28;19931;-68
2024/02/16 07:13:15;;;;;;;;;;;;;;;6.38;83.33;100263.78;5117356;28;19924;-67
2024/02/16 07:15:43;;;;;;;;;;;;;;;6.61;82.86;100277.91;5117174;28;19919;-68
2024/02/16 07:18:14;;;;;;;;;;;;;;;6.68;83.09;100284.84;5116588;28;19934;-68
2024/02/16 07:20:42;;;;;;;;;;;;;;;6.77;83.21;100281.66;5116975;28;20014;-67
2024/02/16 07:23:11;;;;;;;;;;;;;;;6.88;83.15;100276.84;5116691;28;19926;-68
2024/02/16 07:25:39;;;;;;;;;;;;;;;7.01;82.29;100278.84;5116673;28;19926;-68
2024/02/16 07:28:07;;;;;;;;;;;;;;;7.07;81.99;100284.06;5116635;28;19973;-68
2024/02/16 07:30:38;;;;;;;;;;;;;;;7.17;82.13;100286.00;5115350;28;19931;-69
2024/02/16 07:33:11;;;;;;;;;;;;;;;7.27;82.25;100293.00;5116621;28;20448;-68
2024/02/16 07:35:41;;;;;;;;;;;;;;;7.38;82.10;100291.53;5116745;28;20352;-68
2024/02/16 07:38:09;;;;;;;;;;;;;;;7.56;82.01;100276.69;5116920;28;19968;-67
2024/02/16 07:40:37;;;;;;;;;;;;;;;7.70;81.98;100285.44;5116333;28;19958;-68
2024/02/16 07:43:06;;;;;;;;;;;;;;;7.88;81.03;100275.66;5116256;28;19920;-68
2024/02/16 07:45:34;;;;;;;;;;;;;;;8.08;82.07;100279.44;5097985;28;19920;-68
2024/02/16 07:48:05;;;;;;;;;;;;;;;8.21;80.94;100275.41;5116396;28;20361;-68
2024/02/16 07:50:34;;;;;;;;;;;;;;;8.31;81.24;100272.25;5116835;28;19927;-68
2024/02/16 07:53:04;;;;;;;;;;;;;;;8.39;80.67;100285.97;5116312;28;20426;-68
2024/02/16 07:55:33;;;;;;;;;;;;;;;8.51;80.08;100280.22;5116829;28;19920;-68
2024/02/16 07:58:01;;;;;;;;;;;;;;;8.56;80.42;100283.72;5116005;28;20373;-67
2024/02/16 08:00:29;;;;;;;;;;;;;;;8.62;80.12;100273.63;5115766;28;19968;-67
2024/02/16 08:02:58;;;;;;;;;;;;;;;8.65;79.70;100283.88;5115865;28;20288;-68
2024/02/16 08:05:26;;;;;;;;;;;;;;;8.77;79.24;100276.44;5116418;28;20285;-68
2024/02/16 08:07:55;;;;;;;;;;;;;;;8.99;79.72;100280.16;5115831;28;19926;-68
2024/02/16 08:10:26;;;;;;;;;;;;;;;9.15;78.89;100282.09;5115504;28;19934;-67
2024/02/16 08:12:57;;;;;;;;;;;;;;;9.23;79.15;100276.31;5115147;28;19919;-68
2024/02/16 08:15:26;;;;;;;;;;;;;;;9.31;78.36;100276.38;5115593;28;19923;-68
2024/02/16 08:17:54;;;;;;;;;;;;;;;9.42;78.22;100277.41;5114848;28;19919;-68
2024/02/16 08:20:23;;;;;;;;;;;;;;;9.48;77.43;100281.72;5114327;28;20347;-68
2024/02/16 08:22:52;;;;;;;;;;;;;;;9.57;77.21;100281.84;5115605;28;19926;-69
2024/02/16 08:25:20;;;;;;;;;;;;;;;9.74;77.80;100277.81;5115464;28;19919;-69
2024/02/16 08:27:50;;;;;;;;;;;;;;;9.91;77.59;100278.88;5115445;28;19920;-69
2024/02/16 08:30:19;;;;;;;;;;;;;;;10.03;77.51;100278.97;5115398;28;19920;-69
2024/02/16 08:32:47;;;;;;;;;;;;;;;10.15;76.74;100274.03;5115526;28;20014;-68
2024/02/16 08:35:17;;;;;;;;;;;;;;;10.26;76.02;100277.59;5115170;28;19931;-68
2024/02/16 08:37:45;;;;;;;;;;;;;;;10.24;75.67;100276.72;5115211;28;19919;-68
2024/02/16 08:40:15;;;;;;;;;;;;;;;10.29;75.48;100276.75;5115341;28;20266;-69
2024/02/16 08:42:43;;;;;;;;;;;;;;;10.28;75.11;100275.91;5115365;28;19965;-70
2024/02/16 08:45:16;;;;;;;;;;;;;;;10.38;75.26;100282.81;5115045;28;20370;-67
2024/02/16 08:47:45;;;;;;;;;;;;;;;10.50;74.65;100280.38;5114038;28;19926;-68
2024/02/16 08:50:17;;;;;;;;;;;;;;;10.65;74.65;100277.09;5115088;28;19927;-69
2024/02/16 08:52:46;;;;;;;;;;;;;;;10.84;74.24;100278.09;5114803;28;19920;-69
2024/02/16 08:55:16;;;;;;;;;;;;;;;10.93;73.41;100285.81;5115014;28;19996;-68
2024/02/16 08:57:45;;;;;;;;;;;;;;;11.03;72.58;100279.94;5115099;28;19920;-68
2024/02/16 09:00:16;;;;;;;;;;;;;;;11.11;71.87;100273.19;5114813;28;19919;-67
2024/02/16 09:02:46;;;;;;;;;;;;;;;11.26;71.50;100279.25;5113898;28;19920;-69
2024/02/16 09:05:15;;;;;;;;;;;;;;;11.27;70.76;100282.66;5114953;28;19919;-68
2024/02/16 09:07:43;;;;;;;;;;;;;;;11.43;70.52;100281.88;5115002;28;19965;-68
2024/02/16 09:10:12;;;;;;;;;;;;;;;11.60;70.22;100275.16;5114636;28;19923;-69
2024/02/16 09:12:40;;;;;;;;;;;;;;;11.68;69.81;100268.44;5114425;28;19927;-67
2024/02/16 09:15:09;;;;;;;;;;;;;;;11.81;69.39;100275.28;5114364;28;20329;-67
2024/02/16 09:17:39;;;;;;;;;;;;;;;11.92;69.08;100275.34;5114285;28;19933;-68
2024/02/16 09:20:08;;;;;;;;;;;;;;;11.90;67.38;100270.19;5114452;28;19927;-67
2024/02/16 09:22:37;;;;;;;;;;;;;;;11.91;66.72;100266.81;5114563;28;19923;-69
2024/02/16 09:25:06;;;;;;;;;;;;;;;11.99;66.72;100277.91;5114134;28;19926;-68
2024/02/16 09:27:34;;;;;;;;;;;;;;;12.13;66.30;100271.97;5115069;28;19947;-69
2024/02/16 09:30:03;;;;;;;;;;;;;;;12.23;65.68;100274.56;5113996;28;19959;-68
2024/02/16 09:32:32;;;;;;;;;;;;;;;12.34;65.50;100282.25;5114493;28;20017;-68
2024/02/16 09:35:02;;;;;;;;;;;;;;;12.39;65.02;100280.56;5114250;28;19926;-68
2024/02/16 09:37:30;;;;;;;;;;;;;;;12.36;63.41;100286.53;5114542;28;19919;-67
2024/02/16 09:39:59;;;;;;;;;;;;;;;12.42;63.59;100290.81;5114258;28;19920;-69
2024/02/16 09:42:27;;;;;;;;;;;;;;;12.31;62.92;100284.81;5114297;28;19927;-68
2024/02/16 09:44:56;;;;;;;;;;;;;;;12.40;62.97;100290.81;5114258;28;19919;-69
2024/02/16 09:47:30;;;;;;;;;;;;;;;12.57;62.69;100290.84;5114900;28;19920;-68
2024/02/16 09:49:58;;;;;;;;;;;;;;;12.70;63.20;100295.09;5114640;28;19926;-68
2024/02/16 09:52:28;;;;;;;;;;;;;;;12.82;62.54;100287.41;5114144;28;19926;-67
2024/02/16 09:54:56;;;;;;;;;;;;;;;12.87;61.87;100295.09;5114182;28;19920;-68
2024/02/16 09:57:25;;;;;;;;;;;;;;;13.00;61.20;100297.69;5114208;28;19919;-67
2024/02/16 09:59:53;;;;;;;;;;;;;;;13.14;61.11;100295.97;5114591;28;20362;-67
2024/02/16 10:02:22;;;;;;;;;;;;;;;13.00;61.37;100297.69;5114176;28;19920;-67
2024/02/16 10:04:50;;;;;;;;;;;;;;;12.96;61.46;100290.81;5113882;28;19920;-67
2024/02/16 10:07:19;;;;;;;;;;;;;;;13.04;60.55;100294.25;5112779;28;19919;-67
2024/02/16 10:09:49;;;;;;;;;;;;;;;13.16;60.72;100294.25;5114155;28;19930;-68
2024/02/16 10:12:20;;;;;;;;;;;;;;;13.23;60.54;100293.41;5114110;28;20000;-67
2024/02/16 10:14:54;;;;;;;;;;;;;;;13.20;60.45;100283.13;5114048;28;19946;-69
2024/02/16 10:17:23;;;;;;;;;;;;;;;13.06;59.76;100292.56;5114249;28;19926;-67
2024/02/16 10:19:56;;;;;;;;;;;;;;;12.91;59.67;100292.53;5114227;28;19919;-66
2024/02/16 10:22:25;;;;;;;;;;;;;;;12.90;59.90;100288.28;5112612;28;19919;-68
2024/02/16 10:24:55;;;;;;;;;;;;;;;12.88;59.36;100277.19;5112470;28;19964;-67
2024/02/16 10:27:23;;;;;;;;;;;;;;;12.96;59.99;100280.56;5114342;28;19920;-67
2024/02/16 10:29:55;;;;;;;;;;;;;;;13.03;59.67;100282.28;5113897;28;19927;-66
2024/02/16 10:32:24;;;;;;;;;;;;;;;13.08;59.51;100270.34;5113759;28;19920;-67
2024/02/16 10:34:54;;;;;;;;;;;;;;;13.10;59.98;100268.63;5113625;28;20389;-67
2024/02/16 10:37:24;;;;;;;;;;;;;;;13.11;59.68;100269.50;5112711;28;20022;-66
2024/02/16 10:39:53;;;;;;;;;;;;;;;13.19;59.69;100263.50;5113698;28;20301;-67
2024/02/16 10:42:28;;;;;;;;;;;;;;;13.29;60.42;100270.28;5105533;27;20354;-65
2024/02/16 10:44:57;;;;;;;;;;;;;;;13.32;59.52;100260.03;5108525;28;19965;-65
2024/02/16 10:47:26;;;;;;;;;;;;;;;13.28;59.32;100255.78;5116266;28;19926;-65
2024/02/16 10:49:56;;;;;;;;;;;;;;;13.29;60.48;100259.22;5117300;28;20331;-67
2024/02/16 10:52:27;;;;;;;;;;;;;;;13.26;60.19;100254.94;5117907;28;20279;-66
2024/02/16 10:54:55;;;;;;;;;;;;;;;13.42;60.32;100251.47;5117308;28;19920;-67
2024/02/16 10:57:24;;;;;;;;;;;;;;;13.57;59.66;100245.44;5117069;28;19920;-66
2024/02/16 10:59:55;;;;;;;;;;;;;;;13.62;59.02;100243.72;5117504;28;20358;-67
2024/02/16 11:02:25;;;;;;;;;;;;;;;13.64;59.21;100242.00;5117207;28;19923;-67
2024/02/16 11:04:57;;;;;;;;;;;;;;;13.74;58.90;100227.41;5116904;28;19919;-68
2024/02/16 11:07:25;;;;;;;;;;;;;;;13.89;59.08;100229.91;5115675;28;19927;-67
2024/02/16 11:09:55;;;;;;;;;;;;;;;13.99;59.53;100218.72;5116954;28;19920;-67
2024/02/16 11:12:23;;;;;;;;;;;;;;;13.95;58.27;100227.28;5116871;28;19963;-68
2024/02/16 11:14:54;;;;;;;;;;;;;;;13.87;58.19;100223.91;5116729;28;19926;-66
2024/02/16 11:17:27;;;;;;;;;;;;;;;13.73;58.03;100215.44;5117255;28;20018;-67
2024/02/16 11:19:56;;;;;;;;;;;;;;;13.68;58.11;100217.16;5116715;28;19927;-67
2024/02/16 11:22:28;;;;;;;;;;;;;;;13.67;57.15;100216.34;5117013;28;19963;-66
2024/02/16 11:24:57;;;;;;;;;;;;;;;13.80;57.82;100217.97;5115262;28;19965;-67
2024/02/16 11:27:34;;;;;;;;;;;;;;;13.78;58.47;100214.56;5117183;28;19941;-67
2024/02/16 11:30:04;;;;;;;;;;;;;;;13.94;58.53;100211.03;5116671;28;19920;-67
2024/02/16 11:32:35;;;;;;;;;;;;;;;13.95;57.31;100214.47;5116994;28;19920;-67
2024/02/16 11:35:07;;;;;;;;;;;;;;;14.03;57.67;100215.28;5116832;28;19924;-67
2024/02/16 11:37:37;;;;;;;;;;;;;;;14.10;57.41;100212.66;5116532;28;20014;-67
2024/02/16 11:40:08;;;;;;;;;;;;;;;14.13;57.03;100210.94;5116388;28;19919;-68
2024/02/16 11:42:36;;;;;;;;;;;;;;;14.08;57.38;100218.69;5116735;28;19920;-68
2024/02/16 11:45:06;;;;;;;;;;;;;;;14.15;57.46;100215.19;5116145;28;20014;-67
2024/02/16 11:47:36;;;;;;;;;;;;;;;14.04;57.37;100205.00;5116967;28;19964;-67
2024/02/16 11:50:06;;;;;;;;;;;;;;;14.05;58.05;100208.41;5114248;28;19969;-66
2024/02/16 11:52:38;;;;;;;;;;;;;;;14.07;57.97;100211.81;5115956;28;19919;-68
2024/02/16 11:55:09;;;;;;;;;;;;;;;14.14;58.27;100198.09;5116128;28;20047;-67
2024/02/16 11:57:38;;;;;;;;;;;;;;;14.16;58.44;100196.34;5114927;28;20377;-68
2024/02/16 12:00:10;;;;;;;;;;;;;;;14.24;58.84;100193.75;5115987;28;19920;-66
2024/02/16 12:02:41;;;;;;;;;;;;;;;14.26;57.73;100199.72;5114780;28;20270;-67
2024/02/16 12:05:09;;;;;;;;;;;;;;;14.24;58.07;100193.75;5116575;28;19923;-67
2024/02/16 12:07:39;;;;;;;;;;;;;;;14.21;58.33;100198.88;5115956;28;19986;-66
2024/02/16 12:10:10;;;;;;;;;;;;;;;14.32;58.52;100192.88;5116720;28;19920;-67
2024/02/16 12:12:39;;;;;;;;;;;;;;;14.36;57.31;100193.69;5115640;28;19926;-66
2024/02/16 12:15:08;;;;;;;;;;;;;;;14.42;57.37;100179.06;5115575;28;19920;-68
2024/02/16 12:17:36;;;;;;;;;;;;;;;14.43;56.91;100182.50;5115577;28;19919;-66
2024/02/16 12:20:12;;;;;;;;;;;;;;;14.37;57.62;100185.94;5115811;28;19976;-67
2024/02/16 12:22:41;;;;;;;;;;;;;;;14.49;58.22;100180.72;5115772;28;19969;-67
2024/02/16 12:25:09;;;;;;;;;;;;;;;14.60;58.59;100188.34;5115079;28;19920;-68
2024/02/16 12:27:37;;;;;;;;;;;;;;;14.80;57.24;100176.16;5115758;28;19919;-68
2024/02/16 12:30:07;;;;;;;;;;;;;;;14.80;56.89;100180.44;5115416;28;19925;-66
2024/02/16 12:32:35;;;;;;;;;;;;;;;14.68;56.78;100178.84;5115323;28;19929;-67
2024/02/16 12:35:05;;;;;;;;;;;;;;;14.64;56.65;100175.44;5115371;28;19919;-69
2024/02/16 12:37:37;;;;;;;;;;;;;;;14.48;57.45;100175.59;5115568;28;19920;-66
2024/02/16 12:40:07;;;;;;;;;;;;;;;14.35;58.14;100174.00;5115559;27;19920;-68
2024/02/16 12:42:35;;;;;;;;;;;;;;;14.59;58.45;100182.34;5115064;28;19977;-67
2024/02/16 12:45:04;;;;;;;;;;;;;;;14.72;57.54;100188.22;5115119;28;19919;-66
2024/02/16 12:47:33;;;;;;;;;;;;;;;14.72;57.58;100181.38;5115140;28;20022;-68
2024/02/16 12:50:01;;;;;;;;;;;;;;;14.77;56.97;100186.47;5115476;28;19920;-66
2024/02/16 12:52:31;;;;;;;;;;;;;;;14.86;57.35;100180.38;5113697;28;19919;-65